createdAt,value
2018-06-13T00:02:28.489Z,8.65
2018-06-13T00:04:56.883Z,8.07
2018-06-13T00:07:25.315Z,7.97
2018-06-13T00:09:53.963Z,6.95
2018-06-13T00:12:22.641Z,6.75
2018-06-13T00:14:51.087Z,5.93
2018-06-13T00:17:19.529Z,6.40
2018-06-13T00:19:48.207Z,4.60
2018-06-13T00:22:16.577Z,5.70
2018-06-13T00:24:45.349Z,6.03
2018-06-13T00:27:56.325Z,5.00
2018-06-13T00:30:24.826Z,5.40
2018-06-13T00:32:53.785Z,4.65
2018-06-13T00:35:22.403Z,5.28
2018-06-13T00:37:50.787Z,5.47
2018-06-13T00:40:19.163Z,5.37
2018-06-13T00:42:47.541Z,6.10
2018-06-13T00:45:15.960Z,4.13
2018-06-13T00:47:44.312Z,4.53
2018-06-13T00:50:12.944Z,3.47
2018-06-13T00:52:41.268Z,3.90
2018-06-13T00:55:09.760Z,3.93
2018-06-13T00:57:38.084Z,4.23
2018-06-13T01:00:06.407Z,3.90
2018-06-13T01:02:34.828Z,4.17
2018-06-13T01:05:03.168Z,4.83
2018-06-13T01:07:31.660Z,4.83
2018-06-13T01:10:00.266Z,5.08
2018-06-13T01:12:28.779Z,4.87
2018-06-13T01:14:57.365Z,3.95
2018-06-13T01:17:25.994Z,5.62
2018-06-13T01:19:54.410Z,5.57
2018-06-13T01:22:22.789Z,4.70
2018-06-13T01:24:51.714Z,5.50
2018-06-13T01:27:20.043Z,5.60
2018-06-13T01:29:48.369Z,5.40
2018-06-13T01:32:16.700Z,5.30
2018-06-13T01:34:45.284Z,5.20
2018-06-13T01:37:13.609Z,6.30
2018-06-13T01:39:42.089Z,5.60
2018-06-13T01:42:10.684Z,5.50
2018-06-13T01:44:39.032Z,6.07
2018-06-13T01:47:07.457Z,4.83
2018-06-13T01:49:35.916Z,4.70
2018-06-13T01:52:06.908Z,5.50
2018-06-13T01:54:36.016Z,5.30
2018-06-13T01:57:04.400Z,5.80
2018-06-13T01:59:33.140Z,5.20
2018-06-13T02:02:01.833Z,6.83
2018-06-13T02:04:30.804Z,5.17
2018-06-13T02:06:59.249Z,6.93
2018-06-13T02:09:27.948Z,5.83
2018-06-13T02:11:56.592Z,6.80
2018-06-13T02:14:25.232Z,7.05
2018-06-13T02:16:53.612Z,6.83
2018-06-13T02:19:22.256Z,7.67
2018-06-13T02:21:52.093Z,8.07
2018-06-13T02:24:20.604Z,8.57
2018-06-13T02:26:48.968Z,7.93
2018-06-13T02:29:17.547Z,7.73
2018-06-13T02:31:46.267Z,8.93
2018-06-13T02:34:14.978Z,9.90
2018-06-13T02:36:43.751Z,10.60
2018-06-13T02:39:12.246Z,10.63
2018-06-13T02:41:41.419Z,10.45
2018-06-13T02:44:09.805Z,11.40
2018-06-13T02:46:38.467Z,11.37
2018-06-13T02:49:07.191Z,11.97
2018-06-13T02:51:35.574Z,11.13
2018-06-13T02:54:04.208Z,11.68
2018-06-13T02:56:32.851Z,12.53
2018-06-13T02:59:01.191Z,11.50
2018-06-13T03:01:29.799Z,11.88
2018-06-13T03:03:58.727Z,12.25
2018-06-13T03:06:27.147Z,12.80
2018-06-13T03:08:55.635Z,12.53
2018-06-13T03:11:23.992Z,12.37
2018-06-13T03:13:52.601Z,13.30
2018-06-13T03:16:21.200Z,12.10
2018-06-13T03:18:49.524Z,13.30
2018-06-13T03:21:17.843Z,12.10
2018-06-13T03:23:46.432Z,11.55
2018-06-13T03:26:15.104Z,10.57
2018-06-13T03:28:43.428Z,10.20
2018-06-13T03:31:12.065Z,12.13
2018-06-13T03:33:40.764Z,11.90
2018-06-13T03:36:09.200Z,11.03
2018-06-13T03:38:37.863Z,11.75
2018-06-13T03:41:06.363Z,10.60
2018-06-13T03:43:34.976Z,12.40
2018-06-13T03:46:03.341Z,13.03
2018-06-13T03:48:31.702Z,11.13
2018-06-13T03:51:00.247Z,12.10
2018-06-13T03:53:28.581Z,11.47
2018-06-13T03:55:57.167Z,12.10
2018-06-13T03:58:25.949Z,13.13
2018-06-13T04:00:54.303Z,12.47
2018-06-13T04:03:22.635Z,12.57
2018-06-13T04:05:51.431Z,13.50
2018-06-13T04:08:19.839Z,13.40
2018-06-13T04:10:48.156Z,12.60
2018-06-13T04:13:16.444Z,12.50
2018-06-13T04:15:44.771Z,12.60
2018-06-13T04:18:13.379Z,11.60
2018-06-13T04:20:41.681Z,12.87
2018-06-13T04:23:10.220Z,12.80
2018-06-13T04:25:38.764Z,12.93
2018-06-13T04:28:07.341Z,12.60
2018-06-13T04:30:36.181Z,13.30
2018-06-13T04:33:04.652Z,13.47
2018-06-13T04:35:33.233Z,12.45
2018-06-13T04:38:01.816Z,13.20
2018-06-13T04:40:30.396Z,12.73
2018-06-13T04:42:58.900Z,13.97
2018-06-13T04:45:27.208Z,13.17
2018-06-13T04:47:55.507Z,13.13
2018-06-13T04:50:24.115Z,12.23
2018-06-13T04:52:52.791Z,12.93
2018-06-13T04:55:21.139Z,12.60
2018-06-13T04:57:49.569Z,12.07
2018-06-13T05:00:17.949Z,12.60
2018-06-13T05:02:46.841Z,12.45
2018-06-13T05:05:15.505Z,12.60
2018-06-13T05:07:43.939Z,11.87
2018-06-13T05:10:12.299Z,12.03
2018-06-13T05:12:40.439Z,12.03
2018-06-13T05:15:08.795Z,12.70
2018-06-13T05:17:37.401Z,13.20
2018-06-13T05:20:06.138Z,13.48
2018-06-13T05:22:34.488Z,12.90
2018-06-13T05:25:03.036Z,12.03
2018-06-13T05:27:31.373Z,12.27
2018-06-13T05:29:59.724Z,12.17
2018-06-13T05:32:28.350Z,12.23
2018-06-13T05:34:56.720Z,12.43
2018-06-13T05:37:25.080Z,12.13
2018-06-13T05:39:53.612Z,12.10
2018-06-13T05:42:22.234Z,14.83
2018-06-13T05:44:51.030Z,12.27
2018-06-13T05:47:19.656Z,13.13
2018-06-13T05:49:48.005Z,14.00
2018-06-13T05:52:16.655Z,14.37
2018-06-13T05:54:44.958Z,14.40
2018-06-13T05:57:13.526Z,15.85
2018-06-13T05:59:42.089Z,14.90
2018-06-13T06:02:10.380Z,15.40
2018-06-13T06:04:38.963Z,17.15
2018-06-13T06:07:07.543Z,16.57
2018-06-13T06:09:35.842Z,17.77
2018-06-13T06:12:04.447Z,17.00
2018-06-13T06:14:33.035Z,16.75
2018-06-13T06:17:01.461Z,18.40
2018-06-13T06:19:29.801Z,16.70
2018-06-13T06:21:58.116Z,16.40
2018-06-13T06:24:26.843Z,16.30
2018-06-13T06:26:55.479Z,16.17
2018-06-13T06:29:24.054Z,16.47
2018-06-13T06:31:52.713Z,15.43
2018-06-13T06:34:21.278Z,15.83
2018-06-13T06:36:49.930Z,15.50
2018-06-13T06:39:18.365Z,15.67
2018-06-13T06:41:46.965Z,18.15
2018-06-13T06:44:15.400Z,15.07
2018-06-13T06:46:43.985Z,16.57
2018-06-13T06:49:12.277Z,15.90
2018-06-13T06:51:40.640Z,16.60
2018-06-13T06:54:09.028Z,17.80
2018-06-13T06:56:37.549Z,16.67
2018-06-13T06:59:06.893Z,16.70
2018-06-13T07:01:35.524Z,16.70
2018-06-13T07:04:04.492Z,15.58
2018-06-13T07:06:33.152Z,15.60
2018-06-13T07:09:01.815Z,14.53
2018-06-13T07:11:30.331Z,15.37
2018-06-13T07:13:58.694Z,16.20
2018-06-13T07:16:27.250Z,15.40
2018-06-13T07:18:55.635Z,15.33
2018-06-13T07:21:24.193Z,15.30
2018-06-13T07:23:52.582Z,14.63
2018-06-13T07:26:21.288Z,14.37
2018-06-13T07:28:49.693Z,13.60
2018-06-13T07:31:18.037Z,14.93
2018-06-13T07:33:46.912Z,13.45
2018-06-13T07:36:15.274Z,13.83
2018-06-13T07:38:44.071Z,15.48
2018-06-13T07:41:12.831Z,15.47
2018-06-13T07:43:41.250Z,15.60
2018-06-13T07:46:10.180Z,16.90
2018-06-13T07:48:38.543Z,16.77
2018-06-13T07:51:07.231Z,15.40
2018-06-13T07:53:35.591Z,16.07
2018-06-13T07:56:04.005Z,16.40
2018-06-13T07:58:32.360Z,15.70
2018-06-13T08:01:01.024Z,15.80
2018-06-13T08:03:29.451Z,16.07
2018-06-13T08:05:58.250Z,15.90
2018-06-13T08:08:26.655Z,16.80
2018-06-13T08:10:55.172Z,15.60
2018-06-13T08:13:23.805Z,17.20
2018-06-13T08:15:52.536Z,16.20
2018-06-13T08:18:21.248Z,15.98
2018-06-13T08:20:50.020Z,15.33
2018-06-13T08:23:18.388Z,16.20
2018-06-13T08:25:47.028Z,16.23
2018-06-13T08:28:15.420Z,15.00
2018-06-13T08:30:43.755Z,15.30
2018-06-13T08:33:12.469Z,17.40
2018-06-13T08:35:41.098Z,17.47
2018-06-13T08:38:09.746Z,16.80
2018-06-13T08:40:38.395Z,17.27
2018-06-13T08:43:06.755Z,18.53
2018-06-13T08:45:35.419Z,19.90
2018-06-13T08:48:03.787Z,19.67
2018-06-13T08:50:32.135Z,18.97
2018-06-13T08:53:00.775Z,19.27
2018-06-13T08:55:29.244Z,19.47
2018-06-13T08:57:57.561Z,21.90
2018-06-13T09:00:26.145Z,21.70
2018-06-13T09:02:54.453Z,20.97
2018-06-13T09:05:23.131Z,22.27
2018-06-13T09:07:51.632Z,20.40
2018-06-13T09:10:20.081Z,21.13
2018-06-13T09:12:48.425Z,23.30
2018-06-13T09:15:16.835Z,21.77
2018-06-13T09:17:45.180Z,20.97
2018-06-13T09:20:14.080Z,21.60
2018-06-13T09:22:43.040Z,21.37
2018-06-13T09:25:11.356Z,24.63
2018-06-13T09:27:39.663Z,23.80
2018-06-13T09:30:08.581Z,22.35
2018-06-13T09:32:37.161Z,21.33
2018-06-13T09:35:05.469Z,22.40
2018-06-13T09:38:17.222Z,22.40
2018-06-13T09:40:45.520Z,23.67
2018-06-13T09:43:13.884Z,23.50
2018-06-13T09:45:42.483Z,23.83
2018-06-13T09:48:10.884Z,22.50
2018-06-13T09:50:39.716Z,22.70
2018-06-13T09:53:09.107Z,24.43
2018-06-13T09:55:37.752Z,25.57
2018-06-13T09:58:06.474Z,24.10
2018-06-13T10:00:40.518Z,26.57
2018-06-13T10:03:08.861Z,25.70
2018-06-13T10:05:37.347Z,23.57
2018-06-13T10:08:06.373Z,26.40
2018-06-13T10:10:34.720Z,26.03
2018-06-13T10:13:03.357Z,24.00
2018-06-13T10:15:31.968Z,25.63
2018-06-13T10:18:00.648Z,24.35
2018-06-13T10:20:29.332Z,24.45
2018-06-13T10:22:57.968Z,24.23
2018-06-13T10:25:26.336Z,23.40
2018-06-13T10:27:55.159Z,22.10
2018-06-13T10:30:23.824Z,23.50
2018-06-13T10:32:52.392Z,23.47
2018-06-13T10:35:20.871Z,24.63
2018-06-13T10:37:49.499Z,24.65
2018-06-13T10:40:18.139Z,23.92
2018-06-13T10:42:46.627Z,24.67
2018-06-13T10:45:15.048Z,25.70
2018-06-13T10:47:43.121Z,25.90
2018-06-13T10:50:11.463Z,24.70
2018-06-13T10:52:40.100Z,24.30
2018-06-13T10:55:08.802Z,23.40
2018-06-13T10:57:37.193Z,23.90
2018-06-13T11:00:05.721Z,24.80
2018-06-13T11:02:34.424Z,23.00
2018-06-13T11:05:03.056Z,21.80
2018-06-13T11:07:31.820Z,21.57
2018-06-13T11:10:00.449Z,23.83
2018-06-13T11:12:29.088Z,22.20
2018-06-13T11:14:57.436Z,23.52
2018-06-13T11:17:25.967Z,22.70
2018-06-13T11:19:54.320Z,23.50
2018-06-13T11:22:22.656Z,21.60
2018-06-13T11:24:50.995Z,24.53
2018-06-13T11:27:19.663Z,24.07
2018-06-13T11:29:48.137Z,22.90
2018-06-13T11:32:16.480Z,21.77
2018-06-13T11:34:44.843Z,23.40
2018-06-13T11:37:13.461Z,23.95
2018-06-13T11:39:42.090Z,23.35
2018-06-13T11:42:10.441Z,22.43
2018-06-13T11:44:38.826Z,23.10
2018-06-13T11:47:07.347Z,22.80
2018-06-13T11:49:36.799Z,22.93
2018-06-13T11:52:05.573Z,22.30
2018-06-13T11:54:34.105Z,21.00
2018-06-13T11:57:02.604Z,21.90
2018-06-13T11:59:30.958Z,21.00
2018-06-13T12:01:59.607Z,20.35
2018-06-13T12:04:27.953Z,19.50
2018-06-13T12:06:56.604Z,17.70
2018-06-13T12:09:25.152Z,18.27
2018-06-13T12:11:53.592Z,18.50
2018-06-13T12:14:21.928Z,19.27
2018-06-13T12:16:50.629Z,18.87
2018-06-13T12:19:19.544Z,19.60
2018-06-13T12:21:48.596Z,19.15
2018-06-13T12:24:17.285Z,21.10
2018-06-13T12:26:45.904Z,20.00
2018-06-13T12:29:14.494Z,19.23
2018-06-13T12:31:42.848Z,20.83
2018-06-13T12:34:11.486Z,18.45
2018-06-13T12:36:40.575Z,18.97
2018-06-13T12:39:11.236Z,17.40
2018-06-13T12:41:39.898Z,18.98
2018-06-13T12:44:08.588Z,18.73
2018-06-13T12:46:37.283Z,18.73
2018-06-13T12:49:05.884Z,17.90
2018-06-13T12:51:34.278Z,18.83
2018-06-13T12:54:03.369Z,19.33
2018-06-13T12:56:32.264Z,17.05
2018-06-13T12:59:01.265Z,18.93
2018-06-13T13:01:29.776Z,18.40
2018-06-13T13:04:02.336Z,19.50
2018-06-13T13:06:30.796Z,19.30
2018-06-13T13:08:59.730Z,17.30
2018-06-13T13:11:28.064Z,20.87
2018-06-13T13:13:56.757Z,20.02
2018-06-13T13:16:25.568Z,19.50
2018-06-13T13:18:54.178Z,19.73
2018-06-13T13:21:22.846Z,18.40
2018-06-13T13:23:51.218Z,19.53
2018-06-13T13:26:19.780Z,18.17
2018-06-13T13:28:48.440Z,18.23
2018-06-13T13:31:17.171Z,20.20
2018-06-13T13:33:45.897Z,17.92
2018-06-13T13:36:14.364Z,18.90
2018-06-13T13:38:42.817Z,17.70
2018-06-13T13:41:11.228Z,17.83
2018-06-13T13:43:39.866Z,18.77
2018-06-13T13:46:08.539Z,17.43
2018-06-13T13:48:36.615Z,17.90
2018-06-13T13:51:05.019Z,18.13
2018-06-13T13:53:33.399Z,17.27
2018-06-13T13:56:01.816Z,19.47
2018-06-13T13:58:30.220Z,15.43
2018-06-13T14:00:58.709Z,17.20
2018-06-13T14:03:27.343Z,17.45
2018-06-13T14:05:55.803Z,15.90
2018-06-13T14:08:24.695Z,14.93
2018-06-13T14:10:53.053Z,13.30
2018-06-13T14:13:21.473Z,13.97
2018-06-13T14:15:49.814Z,14.90
2018-06-13T14:18:18.458Z,14.03
2018-06-13T14:20:46.792Z,14.60
2018-06-13T14:23:15.284Z,14.77
2018-06-13T14:25:44.202Z,14.10
2018-06-13T14:28:12.581Z,13.00
2018-06-13T14:30:41.240Z,14.63
2018-06-13T14:33:09.601Z,15.20
2018-06-13T14:35:38.065Z,13.90
2018-06-13T14:38:06.766Z,13.90
2018-06-13T14:40:35.416Z,12.93
2018-06-13T14:43:03.937Z,12.60
2018-06-13T14:45:32.323Z,12.63
2018-06-13T14:48:00.978Z,13.83
2018-06-13T14:50:29.822Z,14.33
2018-06-13T14:52:58.372Z,12.27
2018-06-13T14:55:26.839Z,13.63
2018-06-13T14:57:55.400Z,12.23
2018-06-13T15:00:23.875Z,12.20
2018-06-13T15:02:52.345Z,15.07
2018-06-13T15:05:20.706Z,12.57
2018-06-13T15:07:49.394Z,14.23
2018-06-13T15:10:18.183Z,13.93
2018-06-13T15:12:47.723Z,13.80
2018-06-13T15:15:16.077Z,13.53
2018-06-13T15:17:44.373Z,14.20
2018-06-13T15:20:13.169Z,13.35
2018-06-13T15:22:42.123Z,12.97
2018-06-13T15:25:10.460Z,12.03
2018-06-13T15:27:38.856Z,11.90
2018-06-13T15:30:08.113Z,13.77
2018-06-13T15:32:36.712Z,13.03
2018-06-13T15:35:06.245Z,12.10
2018-06-13T15:40:27.708Z,11.37
2018-06-13T15:42:56.844Z,11.55
2018-06-13T15:45:25.816Z,10.27
2018-06-13T15:47:55.380Z,10.50
2018-06-13T15:50:24.161Z,9.33
2018-06-13T15:52:52.976Z,10.77
2018-06-13T15:55:22.652Z,9.50
2018-06-13T15:57:51.460Z,10.27
2018-06-13T16:00:20.112Z,10.23
2018-06-13T16:02:49.412Z,11.60
2018-06-13T16:05:17.728Z,11.17
2018-06-13T16:07:48.208Z,10.03
2018-06-13T16:10:16.917Z,10.40
2018-06-13T16:12:45.772Z,11.10
2018-06-13T16:15:14.827Z,10.80
2018-06-13T16:17:43.425Z,12.20
2018-06-13T16:20:12.472Z,12.50
2018-06-13T16:22:41.084Z,12.35
2018-06-13T16:25:09.403Z,13.70
2018-06-13T16:27:37.895Z,13.63
2018-06-13T16:30:06.449Z,12.20
2018-06-13T16:32:34.787Z,11.80
2018-06-13T16:35:03.175Z,12.70
2018-06-13T16:37:31.571Z,12.57
2018-06-13T16:40:00.122Z,11.40
2018-06-13T16:42:28.803Z,10.30
2018-06-13T16:44:57.399Z,11.43
2018-06-13T16:47:25.909Z,10.60
2018-06-13T16:49:54.221Z,10.40
2018-06-13T16:52:33.793Z,10.70
2018-06-13T16:55:18.707Z,10.88
2018-06-13T16:57:47.324Z,9.97
2018-06-13T17:00:16.157Z,10.03
2018-06-13T17:02:44.833Z,10.05
2018-06-13T17:05:13.193Z,10.77
2018-06-13T17:07:41.569Z,10.33
2018-06-13T17:10:10.507Z,10.00
2018-06-13T17:12:38.919Z,10.20
2018-06-13T17:15:07.297Z,10.73
2018-06-13T17:17:36.075Z,9.77
2018-06-13T17:20:04.509Z,10.77
2018-06-13T17:22:32.875Z,10.60
2018-06-13T17:25:01.511Z,10.30
2018-06-13T17:27:30.550Z,11.00
2018-06-13T17:29:59.288Z,10.90
2018-06-13T17:32:27.640Z,11.57
2018-06-13T17:34:56.285Z,11.60
2018-06-13T17:37:24.676Z,10.60
2018-06-13T17:39:53.062Z,10.93
2018-06-13T17:42:21.429Z,11.67
2018-06-13T17:44:50.105Z,11.20
2018-06-13T17:47:18.472Z,10.50
2018-06-13T17:49:48.242Z,11.70
2018-06-13T17:52:17.027Z,11.60
2018-06-13T17:54:45.520Z,11.37
2018-06-13T17:57:13.878Z,12.17
2018-06-13T17:59:42.207Z,11.80
2018-06-13T18:02:10.508Z,12.47
2018-06-13T18:04:39.101Z,12.07
2018-06-13T18:07:07.667Z,12.87
2018-06-13T18:09:35.782Z,11.63
2018-06-13T18:12:04.425Z,12.17
2018-06-13T18:14:33.009Z,15.13
2018-06-13T18:17:02.037Z,11.70
2018-06-13T18:19:30.400Z,11.33
2018-06-13T18:21:59.027Z,12.20
2018-06-13T18:24:27.672Z,12.17
2018-06-13T18:26:56.321Z,12.30
2018-06-13T18:29:25.060Z,11.60
2018-06-13T18:31:53.484Z,11.93
2018-06-13T18:34:21.552Z,11.03
2018-06-13T18:36:50.172Z,8.90
2018-06-13T18:39:18.811Z,9.05
2018-06-13T18:41:47.246Z,8.07
2018-06-13T18:44:15.814Z,8.00
2018-06-13T18:46:44.248Z,9.00
2018-06-13T18:49:12.707Z,8.60
2018-06-13T18:51:41.295Z,7.67
2018-06-13T18:54:09.703Z,8.57
2018-06-13T18:56:38.039Z,6.90
2018-06-13T18:59:06.769Z,5.90
2018-06-13T19:01:35.419Z,7.13
2018-06-13T19:04:04.216Z,6.40
2018-06-13T19:06:32.960Z,5.73
2018-06-13T19:09:01.567Z,7.27
2018-06-13T19:11:30.149Z,6.50
2018-06-13T19:13:58.614Z,6.30
2018-06-13T19:16:27.244Z,6.57
2018-06-13T19:18:58.827Z,6.00
2018-06-13T19:21:27.365Z,5.73
2018-06-13T19:23:55.689Z,6.90
2018-06-13T19:26:24.087Z,5.97
2018-06-13T19:28:52.420Z,6.30
2018-06-13T19:31:20.887Z,6.62
2018-06-13T19:33:49.578Z,6.83
2018-06-13T19:36:18.042Z,6.23
2018-06-13T19:38:46.655Z,6.40
2018-06-13T21:15:37.336Z,7.63
2018-06-13T21:18:05.700Z,7.33
2018-06-13T21:20:34.120Z,7.67
2018-06-13T21:23:02.668Z,7.07
2018-06-13T21:25:31.520Z,7.30
2018-06-13T21:28:00.103Z,7.17
2018-06-13T21:30:28.735Z,6.93
2018-06-13T21:32:57.042Z,6.50
2018-06-13T21:35:25.811Z,7.00
2018-06-13T21:37:54.442Z,7.00
2018-06-13T21:40:22.953Z,6.67
2018-06-13T21:42:51.695Z,6.55
2018-06-13T21:45:20.032Z,7.57
2018-06-13T21:47:48.579Z,6.10
2018-06-13T21:50:17.151Z,6.77
2018-06-13T21:52:45.729Z,6.22
2018-06-13T21:55:14.027Z,6.57
2018-06-13T21:57:42.340Z,5.93
2018-06-13T22:00:11.870Z,5.93
2018-06-13T22:02:40.665Z,6.80
2018-06-13T22:05:08.983Z,6.30
2018-06-13T22:07:37.549Z,5.20
2018-06-13T22:10:05.857Z,6.17
2018-06-13T22:12:34.420Z,5.62
2018-06-13T22:15:02.730Z,6.40
2018-06-13T22:17:31.381Z,5.22
2018-06-13T22:19:59.962Z,5.90
2018-06-13T22:22:28.541Z,6.10
2018-06-13T22:24:56.847Z,5.53
2018-06-13T22:27:25.410Z,5.33
2018-06-13T22:29:54.004Z,5.50
2018-06-13T22:32:22.466Z,5.80
2018-06-13T22:34:50.801Z,5.23
2018-06-13T22:37:19.337Z,4.60
2018-06-13T22:39:47.924Z,4.00
2018-06-13T22:42:16.227Z,4.80
2018-06-13T22:44:44.812Z,4.80
2018-06-13T22:47:13.376Z,4.80
2018-06-13T22:49:41.684Z,4.87
2018-06-13T22:52:10.459Z,5.40
2018-06-13T22:54:39.413Z,5.00
2018-06-13T22:57:08.328Z,4.83
2018-06-13T22:59:36.803Z,4.20
2018-06-13T23:02:05.472Z,4.37
2018-06-13T23:04:34.071Z,4.27
2018-06-13T23:07:02.671Z,4.97
2018-06-13T23:09:31.245Z,5.10
2018-06-13T23:11:59.529Z,5.10
2018-06-13T23:14:27.831Z,5.50
2018-06-13T23:16:56.291Z,5.70
2018-06-13T23:19:24.629Z,5.60
2018-06-13T23:21:53.281Z,6.15
2018-06-13T23:24:21.849Z,6.28
2018-06-13T23:26:50.257Z,5.87
2018-06-13T23:29:18.759Z,5.00
2018-06-13T23:31:47.059Z,6.70
2018-06-13T23:34:15.360Z,5.30
2018-06-13T23:36:44.040Z,5.67
2018-06-13T23:39:12.597Z,5.73
2018-06-13T23:41:41.338Z,6.70
2018-06-13T23:44:09.808Z,5.67
2018-06-13T23:46:38.435Z,5.50
2018-06-13T23:49:07.052Z,5.50
2018-06-13T23:51:35.360Z,5.90
2018-06-13T23:54:03.705Z,5.73
2018-06-13T23:56:31.988Z,5.57
2018-06-13T23:59:00.790Z,5.90
